Terminal Aerodrome Forecast
Issued by NWS Midland/Odessa, TX

Home | Current Version | Previous Version | Text Only | Print | Product List | Glossary On
Versions: 1 2 3 4 5 6 7 8 9 10 11 12 13 14 15 16 17 18 19 20 21
177
FTUS44 KMAF 261125
TAFMAF
TAF
KMAF 261125Z 2612/2712 31014KT P6SM BKN250
     FM261500 33015G25KT P6SM SCT050 SCT250
     FM270100 14009KT P6SM SCT200=

USA.gov is the U.S. government's official web portal to all federal, state and local government web resources and services.